sensor_id;sensor_type;location;lat;lon;timestamp;P1;durP1;ratioP1;P2;durP2;ratioP2
19973;SDS011;10148;47.694;9.442;2022-11-23T00:03:53;1.37;;;0.90;;
19973;SDS011;10148;47.694;9.442;2022-11-23T00:06:20;1.57;;;0.67;;
19973;SDS011;10148;47.694;9.442;2022-11-23T00:08:47;3.27;;;0.90;;
19973;SDS011;10148;47.694;9.442;2022-11-23T00:11:14;1.73;;;0.67;;
19973;SDS011;10148;47.694;9.442;2022-11-23T00:13:40;0.80;;;0.40;;
19973;SDS011;10148;47.694;9.442;2022-11-23T00:16:07;1.53;;;0.47;;
19973;SDS011;10148;47.694;9.442;2022-11-23T00:18:38;1.43;;;0.50;;
19973;SDS011;10148;47.694;9.442;2022-11-23T00:21:07;2.43;;;0.50;;
19973;SDS011;10148;47.694;9.442;2022-11-23T00:23:34;0.60;;;0.33;;
19973;SDS011;10148;47.694;9.442;2022-11-23T00:26:00;4.03;;;0.63;;
19973;SDS011;10148;47.694;9.442;2022-11-23T00:28:26;0.63;;;0.30;;
19973;SDS011;10148;47.694;9.442;2022-11-23T00:30:55;3.70;;;0.47;;
19973;SDS011;10148;47.694;9.442;2022-11-23T00:33:21;2.43;;;0.60;;
19973;SDS011;10148;47.694;9.442;2022-11-23T00:35:46;1.43;;;0.50;;
19973;SDS011;10148;47.694;9.442;2022-11-23T00:38:12;0.57;;;0.37;;
19973;SDS011;10148;47.694;9.442;2022-11-23T00:40:38;1.30;;;0.40;;
19973;SDS011;10148;47.694;9.442;2022-11-23T00:43:03;3.23;;;0.57;;
19973;SDS011;10148;47.694;9.442;2022-11-23T00:45:32;1.90;;;0.50;;
19973;SDS011;10148;47.694;9.442;2022-11-23T00:47:58;1.27;;;0.40;;
19973;SDS011;10148;47.694;9.442;2022-11-23T00:50:24;2.03;;;0.47;;
19973;SDS011;10148;47.694;9.442;2022-11-23T00:52:49;2.00;;;0.50;;
19973;SDS011;10148;47.694;9.442;2022-11-23T00:55:15;1.50;;;0.40;;
19973;SDS011;10148;47.694;9.442;2022-11-23T00:57:44;2.20;;;0.50;;
19973;SDS011;10148;47.694;9.442;2022-11-23T01:00:09;2.00;;;0.50;;
19973;SDS011;10148;47.694;9.442;2022-11-23T01:02:36;1.07;;;0.50;;
19973;SDS011;10148;47.694;9.442;2022-11-23T01:05:02;1.37;;;0.50;;
19973;SDS011;10148;47.694;9.442;2022-11-23T01:07:28;0.87;;;0.40;;
19973;SDS011;10148;47.694;9.442;2022-11-23T01:09:56;1.43;;;0.40;;
19973;SDS011;10148;47.694;9.442;2022-11-23T01:12:22;2.83;;;0.77;;
19973;SDS011;10148;47.694;9.442;2022-11-23T01:14:48;6.10;;;0.87;;
19973;SDS011;10148;47.694;9.442;2022-11-23T01:17:13;1.40;;;0.50;;
19973;SDS011;10148;47.694;9.442;2022-11-23T01:19:39;2.83;;;0.53;;
19973;SDS011;10148;47.694;9.442;2022-11-23T01:22:05;0.70;;;0.33;;
19973;SDS011;10148;47.694;9.442;2022-11-23T01:24:30;1.10;;;0.60;;
19973;SDS011;10148;47.694;9.442;2022-11-23T01:26:56;0.87;;;0.40;;
19973;SDS011;10148;47.694;9.442;2022-11-23T01:29:22;1.10;;;0.40;;
19973;SDS011;10148;47.694;9.442;2022-11-23T01:31:48;2.17;;;0.60;;
19973;SDS011;10148;47.694;9.442;2022-11-23T01:34:14;1.80;;;0.43;;
19973;SDS011;10148;47.694;9.442;2022-11-23T01:36:41;1.50;;;0.40;;
19973;SDS011;10148;47.694;9.442;2022-11-23T01:39:08;2.63;;;0.40;;
19973;SDS011;10148;47.694;9.442;2022-11-23T01:41:35;0.73;;;0.23;;
19973;SDS011;10148;47.694;9.442;2022-11-23T01:44:22;0.70;;;0.47;;
19973;SDS011;10148;47.694;9.442;2022-11-23T01:46:59;4.47;;;0.77;;
19973;SDS011;10148;47.694;9.442;2022-11-23T01:49:51;1.67;;;0.30;;
19973;SDS011;10148;47.694;9.442;2022-11-23T01:52:21;2.30;;;0.50;;
19973;SDS011;10148;47.694;9.442;2022-11-23T01:54:50;3.07;;;0.50;;
19973;SDS011;10148;47.694;9.442;2022-11-23T01:57:24;3.13;;;0.50;;
19973;SDS011;10148;47.694;9.442;2022-11-23T01:59:57;4.33;;;0.60;;
19973;SDS011;10148;47.694;9.442;2022-11-23T02:02:23;1.17;;;0.30;;
19973;SDS011;10148;47.694;9.442;2022-11-23T02:04:51;2.13;;;0.43;;
19973;SDS011;10148;47.694;9.442;2022-11-23T02:07:19;0.73;;;0.40;;
19973;SDS011;10148;47.694;9.442;2022-11-23T02:09:48;4.77;;;0.50;;
19973;SDS011;10148;47.694;9.442;2022-11-23T02:12:14;2.33;;;0.70;;
19973;SDS011;10148;47.694;9.442;2022-11-23T02:14:43;2.60;;;0.53;;
19973;SDS011;10148;47.694;9.442;2022-11-23T02:17:09;0.27;;;0.20;;
19973;SDS011;10148;47.694;9.442;2022-11-23T02:19:52;1.10;;;0.43;;
19973;SDS011;10148;47.694;9.442;2022-11-23T02:22:36;4.30;;;1.00;;
19973;SDS011;10148;47.694;9.442;2022-11-23T02:25:06;4.20;;;0.53;;
19973;SDS011;10148;47.694;9.442;2022-11-23T02:27:50;1.57;;;0.67;;
19973;SDS011;10148;47.694;9.442;2022-11-23T02:30:17;0.77;;;0.50;;
19973;SDS011;10148;47.694;9.442;2022-11-23T02:32:48;0.43;;;0.37;;
19973;SDS011;10148;47.694;9.442;2022-11-23T02:35:16;0.30;;;0.20;;
19973;SDS011;10148;47.694;9.442;2022-11-23T02:37:42;3.50;;;0.40;;
19973;SDS011;10148;47.694;9.442;2022-11-23T02:40:10;1.27;;;0.50;;
19973;SDS011;10148;47.694;9.442;2022-11-23T02:42:59;2.03;;;0.60;;
19973;SDS011;10148;47.694;9.442;2022-11-23T02:45:33;2.37;;;0.63;;
19973;SDS011;10148;47.694;9.442;2022-11-23T02:48:03;1.80;;;0.47;;
19973;SDS011;10148;47.694;9.442;2022-11-23T02:50:29;1.03;;;0.67;;
19973;SDS011;10148;47.694;9.442;2022-11-23T02:52:55;2.93;;;0.40;;
19973;SDS011;10148;47.694;9.442;2022-11-23T02:55:21;0.77;;;0.30;;
19973;SDS011;10148;47.694;9.442;2022-11-23T02:57:47;2.67;;;0.50;;
19973;SDS011;10148;47.694;9.442;2022-11-23T03:00:13;3.03;;;0.60;;
19973;SDS011;10148;47.694;9.442;2022-11-23T03:02:39;2.53;;;0.97;;
19973;SDS011;10148;47.694;9.442;2022-11-23T03:05:05;1.13;;;0.50;;
19973;SDS011;10148;47.694;9.442;2022-11-23T03:07:31;1.00;;;0.50;;
19973;SDS011;10148;47.694;9.442;2022-11-23T03:09:56;0.83;;;0.57;;
19973;SDS011;10148;47.694;9.442;2022-11-23T03:12:24;1.60;;;0.50;;
19973;SDS011;10148;47.694;9.442;2022-11-23T03:14:50;3.43;;;1.13;;
19973;SDS011;10148;47.694;9.442;2022-11-23T03:17:16;2.27;;;0.60;;
19973;SDS011;10148;47.694;9.442;2022-11-23T03:19:42;1.87;;;0.47;;
19973;SDS011;10148;47.694;9.442;2022-11-23T03:22:07;1.27;;;0.60;;
19973;SDS011;10148;47.694;9.442;2022-11-23T03:24:33;3.30;;;0.57;;
19973;SDS011;10148;47.694;9.442;2022-11-23T03:26:59;3.50;;;0.70;;
19973;SDS011;10148;47.694;9.442;2022-11-23T03:29:25;2.63;;;0.53;;
19973;SDS011;10148;47.694;9.442;2022-11-23T03:31:54;1.00;;;0.40;;
19973;SDS011;10148;47.694;9.442;2022-11-23T03:34:20;1.93;;;0.57;;
19973;SDS011;10148;47.694;9.442;2022-11-23T03:36:46;0.60;;;0.40;;
19973;SDS011;10148;47.694;9.442;2022-11-23T03:39:15;4.03;;;0.80;;
19973;SDS011;10148;47.694;9.442;2022-11-23T03:41:40;3.13;;;0.80;;
19973;SDS011;10148;47.694;9.442;2022-11-23T03:44:06;1.00;;;0.40;;
19973;SDS011;10148;47.694;9.442;2022-11-23T03:46:32;0.50;;;0.40;;
19973;SDS011;10148;47.694;9.442;2022-11-23T03:48:57;2.80;;;0.70;;
19973;SDS011;10148;47.694;9.442;2022-11-23T03:51:23;2.00;;;0.30;;
19973;SDS011;10148;47.694;9.442;2022-11-23T03:53:49;0.90;;;0.33;;
19973;SDS011;10148;47.694;9.442;2022-11-23T03:56:17;3.37;;;0.60;;
19973;SDS011;10148;47.694;9.442;2022-11-23T03:58:42;0.77;;;0.40;;
19973;SDS011;10148;47.694;9.442;2022-11-23T04:01:08;2.67;;;0.67;;
19973;SDS011;10148;47.694;9.442;2022-11-23T04:03:34;0.90;;;0.63;;
19973;SDS011;10148;47.694;9.442;2022-11-23T04:05:59;0.70;;;0.40;;
19973;SDS011;10148;47.694;9.442;2022-11-23T04:08:25;1.10;;;0.50;;
19973;SDS011;10148;47.694;9.442;2022-11-23T04:10:57;2.33;;;0.47;;
19973;SDS011;10148;47.694;9.442;2022-11-23T04:13:24;1.03;;;0.30;;
19973;SDS011;10148;47.694;9.442;2022-11-23T04:15:49;2.47;;;0.40;;
19973;SDS011;10148;47.694;9.442;2022-11-23T04:18:15;2.23;;;0.63;;
19973;SDS011;10148;47.694;9.442;2022-11-23T04:20:41;2.30;;;0.50;;
19973;SDS011;10148;47.694;9.442;2022-11-23T04:23:07;1.13;;;0.50;;
19973;SDS011;10148;47.694;9.442;2022-11-23T04:25:33;0.80;;;0.40;;
19973;SDS011;10148;47.694;9.442;2022-11-23T04:27:58;3.10;;;0.60;;
19973;SDS011;10148;47.694;9.442;2022-11-23T04:30:24;2.20;;;0.60;;
19973;SDS011;10148;47.694;9.442;2022-11-23T04:32:51;2.23;;;0.60;;
19973;SDS011;10148;47.694;9.442;2022-11-23T04:35:17;0.93;;;0.50;;
19973;SDS011;10148;47.694;9.442;2022-11-23T04:37:43;2.53;;;0.60;;
19973;SDS011;10148;47.694;9.442;2022-11-23T04:40:09;0.63;;;0.40;;
19973;SDS011;10148;47.694;9.442;2022-11-23T04:42:35;6.20;;;1.07;;
19973;SDS011;10148;47.694;9.442;2022-11-23T04:45:01;3.13;;;0.60;;
19973;SDS011;10148;47.694;9.442;2022-11-23T04:47:26;1.97;;;0.60;;
19973;SDS011;10148;47.694;9.442;2022-11-23T04:49:52;0.80;;;0.50;;
19973;SDS011;10148;47.694;9.442;2022-11-23T04:52:18;2.13;;;0.50;;
19973;SDS011;10148;47.694;9.442;2022-11-23T04:54:44;2.20;;;0.97;;
19973;SDS011;10148;47.694;9.442;2022-11-23T04:57:09;2.47;;;0.80;;
19973;SDS011;10148;47.694;9.442;2022-11-23T04:59:38;1.53;;;0.77;;
19973;SDS011;10148;47.694;9.442;2022-11-23T05:02:03;1.23;;;0.60;;
19973;SDS011;10148;47.694;9.442;2022-11-23T05:04:29;3.17;;;0.60;;
19973;SDS011;10148;47.694;9.442;2022-11-23T05:06:55;2.27;;;0.63;;
19973;SDS011;10148;47.694;9.442;2022-11-23T05:09:21;0.93;;;0.50;;
19973;SDS011;10148;47.694;9.442;2022-11-23T05:11:46;1.33;;;0.70;;
19973;SDS011;10148;47.694;9.442;2022-11-23T05:14:12;3.47;;;0.90;;
19973;SDS011;10148;47.694;9.442;2022-11-23T05:16:38;1.53;;;0.60;;
19973;SDS011;10148;47.694;9.442;2022-11-23T05:19:03;0.60;;;0.43;;
19973;SDS011;10148;47.694;9.442;2022-11-23T05:21:29;2.20;;;0.80;;
19973;SDS011;10148;47.694;9.442;2022-11-23T05:23:55;2.67;;;0.93;;
19973;SDS011;10148;47.694;9.442;2022-11-23T05:26:23;1.80;;;0.80;;
19973;SDS011;10148;47.694;9.442;2022-11-23T05:28:49;1.60;;;0.67;;
19973;SDS011;10148;47.694;9.442;2022-11-23T05:31:14;1.30;;;0.90;;
19973;SDS011;10148;47.694;9.442;2022-11-23T05:33:40;1.07;;;0.73;;
19973;SDS011;10148;47.694;9.442;2022-11-23T05:36:06;1.90;;;0.90;;
19973;SDS011;10148;47.694;9.442;2022-11-23T05:38:33;1.33;;;0.90;;
19973;SDS011;10148;47.694;9.442;2022-11-23T05:40:59;1.00;;;0.90;;
19973;SDS011;10148;47.694;9.442;2022-11-23T05:43:25;1.10;;;0.70;;
19973;SDS011;10148;47.694;9.442;2022-11-23T05:45:50;0.97;;;0.87;;
19973;SDS011;10148;47.694;9.442;2022-11-23T05:48:16;1.73;;;0.57;;
19973;SDS011;10148;47.694;9.442;2022-11-23T05:50:42;1.53;;;0.70;;
19973;SDS011;10148;47.694;9.442;2022-11-23T05:53:08;0.43;;;0.40;;
19973;SDS011;10148;47.694;9.442;2022-11-23T05:55:34;2.03;;;1.00;;
19973;SDS011;10148;47.694;9.442;2022-11-23T05:58:00;3.97;;;1.40;;
19973;SDS011;10148;47.694;9.442;2022-11-23T06:00:27;1.83;;;0.90;;
19973;SDS011;10148;47.694;9.442;2022-11-23T06:02:57;2.53;;;1.07;;
19973;SDS011;10148;47.694;9.442;2022-11-23T06:05:28;2.57;;;0.97;;
19973;SDS011;10148;47.694;9.442;2022-11-23T06:08:15;0.90;;;0.43;;
19973;SDS011;10148;47.694;9.442;2022-11-23T06:10:40;1.60;;;0.73;;
19973;SDS011;10148;47.694;9.442;2022-11-23T06:13:06;1.17;;;0.70;;
19973;SDS011;10148;47.694;9.442;2022-11-23T06:15:53;1.10;;;0.87;;
19973;SDS011;10148;47.694;9.442;2022-11-23T06:18:19;2.40;;;0.70;;
19973;SDS011;10148;47.694;9.442;2022-11-23T06:21:00;2.77;;;0.80;;
19973;SDS011;10148;47.694;9.442;2022-11-23T06:23:41;1.50;;;0.70;;
19973;SDS011;10148;47.694;9.442;2022-11-23T06:26:23;1.87;;;0.80;;
19973;SDS011;10148;47.694;9.442;2022-11-23T06:28:52;1.77;;;0.87;;
19973;SDS011;10148;47.694;9.442;2022-11-23T06:31:20;4.90;;;3.50;;
19973;SDS011;10148;47.694;9.442;2022-11-23T06:33:58;3.00;;;2.70;;
19973;SDS011;10148;47.694;9.442;2022-11-23T06:39:02;2.67;;;1.30;;
19973;SDS011;10148;47.694;9.442;2022-11-23T06:41:37;6.23;;;2.63;;
19973;SDS011;10148;47.694;9.442;2022-11-23T06:44:06;6.73;;;3.40;;
19973;SDS011;10148;47.694;9.442;2022-11-23T06:46:40;3.50;;;2.47;;
19973;SDS011;10148;47.694;9.442;2022-11-23T06:49:06;1.33;;;1.10;;
19973;SDS011;10148;47.694;9.442;2022-11-23T06:51:31;2.03;;;1.40;;
19973;SDS011;10148;47.694;9.442;2022-11-23T06:54:00;1.93;;;1.43;;
19973;SDS011;10148;47.694;9.442;2022-11-23T06:56:39;2.20;;;1.30;;
19973;SDS011;10148;47.694;9.442;2022-11-23T06:59:10;1.50;;;1.40;;
19973;SDS011;10148;47.694;9.442;2022-11-23T07:01:45;5.60;;;1.33;;
19973;SDS011;10148;47.694;9.442;2022-11-23T07:04:14;2.07;;;0.90;;
19973;SDS011;10148;47.694;9.442;2022-11-23T07:06:49;2.43;;;1.70;;
19973;SDS011;10148;47.694;9.442;2022-11-23T07:09:15;2.23;;;1.00;;
19973;SDS011;10148;47.694;9.442;2022-11-23T07:11:41;3.00;;;1.20;;
19973;SDS011;10148;47.694;9.442;2022-11-23T07:14:09;2.47;;;1.90;;
19973;SDS011;10148;47.694;9.442;2022-11-23T07:19:38;2.93;;;2.63;;
19973;SDS011;10148;47.694;9.442;2022-11-23T07:22:13;3.03;;;2.20;;
19973;SDS011;10148;47.694;9.442;2022-11-23T07:24:52;3.43;;;2.00;;
19973;SDS011;10148;47.694;9.442;2022-11-23T07:27:18;5.00;;;2.00;;
19973;SDS011;10148;47.694;9.442;2022-11-23T07:29:44;2.63;;;2.00;;
19973;SDS011;10148;47.694;9.442;2022-11-23T07:32:10;5.00;;;2.60;;
19973;SDS011;10148;47.694;9.442;2022-11-23T07:34:38;3.80;;;2.20;;
19973;SDS011;10148;47.694;9.442;2022-11-23T07:37:04;4.50;;;2.93;;
19973;SDS011;10148;47.694;9.442;2022-11-23T07:39:41;4.63;;;3.13;;
19973;SDS011;10148;47.694;9.442;2022-11-23T07:42:17;6.00;;;3.47;;
19973;SDS011;10148;47.694;9.442;2022-11-23T07:44:55;6.20;;;2.60;;
19973;SDS011;10148;47.694;9.442;2022-11-23T07:47:24;2.90;;;2.43;;
19973;SDS011;10148;47.694;9.442;2022-11-23T07:49:58;2.77;;;1.93;;
19973;SDS011;10148;47.694;9.442;2022-11-23T07:55:24;3.03;;;1.73;;
19973;SDS011;10148;47.694;9.442;2022-11-23T07:57:50;4.07;;;2.20;;
19973;SDS011;10148;47.694;9.442;2022-11-23T08:00:23;3.17;;;2.10;;
19973;SDS011;10148;47.694;9.442;2022-11-23T08:02:51;6.13;;;1.70;;
19973;SDS011;10148;47.694;9.442;2022-11-23T08:05:17;3.20;;;1.80;;
19973;SDS011;10148;47.694;9.442;2022-11-23T08:07:43;3.67;;;1.63;;
19973;SDS011;10148;47.694;9.442;2022-11-23T08:10:09;4.20;;;2.07;;
19973;SDS011;10148;47.694;9.442;2022-11-23T08:12:39;4.60;;;1.90;;
19973;SDS011;10148;47.694;9.442;2022-11-23T08:15:09;2.70;;;1.90;;
19973;SDS011;10148;47.694;9.442;2022-11-23T08:17:38;2.50;;;1.60;;
19973;SDS011;10148;47.694;9.442;2022-11-23T08:20:06;3.03;;;2.03;;
19973;SDS011;10148;47.694;9.442;2022-11-23T08:23:00;5.17;;;2.30;;
19973;SDS011;10148;47.694;9.442;2022-11-23T08:25:29;3.67;;;1.63;;
19973;SDS011;10148;47.694;9.442;2022-11-23T08:27:56;1.90;;;1.70;;
19973;SDS011;10148;47.694;9.442;2022-11-23T08:30:28;3.97;;;1.67;;
19973;SDS011;10148;47.694;9.442;2022-11-23T08:33:04;1.97;;;1.30;;
19973;SDS011;10148;47.694;9.442;2022-11-23T08:35:32;3.80;;;1.97;;
19973;SDS011;10148;47.694;9.442;2022-11-23T08:37:58;2.23;;;1.50;;
19973;SDS011;10148;47.694;9.442;2022-11-23T08:40:24;1.73;;;1.40;;
19973;SDS011;10148;47.694;9.442;2022-11-23T08:42:53;4.37;;;1.97;;
19973;SDS011;10148;47.694;9.442;2022-11-23T08:45:26;1.73;;;1.10;;
19973;SDS011;10148;47.694;9.442;2022-11-23T08:47:58;2.30;;;2.10;;
19973;SDS011;10148;47.694;9.442;2022-11-23T08:50:27;4.13;;;2.43;;
19973;SDS011;10148;47.694;9.442;2022-11-23T08:52:55;3.67;;;2.27;;
19973;SDS011;10148;47.694;9.442;2022-11-23T08:55:22;4.00;;;1.60;;
19973;SDS011;10148;47.694;9.442;2022-11-23T08:58:00;2.60;;;1.73;;
19973;SDS011;10148;47.694;9.442;2022-11-23T09:00:33;2.70;;;1.67;;
19973;SDS011;10148;47.694;9.442;2022-11-23T09:02:59;2.97;;;1.67;;
19973;SDS011;10148;47.694;9.442;2022-11-23T09:05:27;4.30;;;1.90;;
19973;SDS011;10148;47.694;9.442;2022-11-23T09:07:57;1.70;;;1.40;;
19973;SDS011;10148;47.694;9.442;2022-11-23T09:10:24;3.40;;;1.57;;
19973;SDS011;10148;47.694;9.442;2022-11-23T09:12:50;2.20;;;1.33;;
19973;SDS011;10148;47.694;9.442;2022-11-23T09:15:17;2.57;;;1.60;;
19973;SDS011;10148;47.694;9.442;2022-11-23T09:17:48;4.17;;;1.57;;
19973;SDS011;10148;47.694;9.442;2022-11-23T09:20:16;3.10;;;1.70;;
19973;SDS011;10148;47.694;9.442;2022-11-23T09:22:51;6.43;;;1.93;;
19973;SDS011;10148;47.694;9.442;2022-11-23T09:25:17;1.87;;;1.33;;
19973;SDS011;10148;47.694;9.442;2022-11-23T09:27:44;3.10;;;1.60;;
19973;SDS011;10148;47.694;9.442;2022-11-23T09:30:10;1.83;;;1.10;;
19973;SDS011;10148;47.694;9.442;2022-11-23T09:32:36;2.13;;;1.40;;
19973;SDS011;10148;47.694;9.442;2022-11-23T09:35:05;2.03;;;1.40;;
19973;SDS011;10148;47.694;9.442;2022-11-23T09:37:31;3.60;;;1.50;;
19973;SDS011;10148;47.694;9.442;2022-11-23T09:39:57;2.53;;;1.20;;
19973;SDS011;10148;47.694;9.442;2022-11-23T09:51:38;2.57;;;1.10;;
19973;SDS011;10148;47.694;9.442;2022-11-23T09:56:21;2.90;;;0.97;;
19973;SDS011;10148;47.694;9.442;2022-11-23T09:58:52;4.63;;;0.97;;
19973;SDS011;10148;47.694;9.442;2022-11-23T10:01:22;3.90;;;1.00;;
19973;SDS011;10148;47.694;9.442;2022-11-23T10:03:56;2.07;;;1.00;;
19973;SDS011;10148;47.694;9.442;2022-11-23T10:06:28;2.10;;;0.83;;
19973;SDS011;10148;47.694;9.442;2022-11-23T10:12:10;1.50;;;0.83;;
19973;SDS011;10148;47.694;9.442;2022-11-23T10:18:10;2.50;;;0.83;;
19973;SDS011;10148;47.694;9.442;2022-11-23T10:20:48;1.17;;;0.60;;
19973;SDS011;10148;47.694;9.442;2022-11-23T10:26:19;1.70;;;0.80;;
19973;SDS011;10148;47.694;9.442;2022-11-23T10:28:57;2.87;;;0.77;;
19973;SDS011;10148;47.694;9.442;2022-11-23T10:31:30;2.43;;;0.77;;
19973;SDS011;10148;47.694;9.442;2022-11-23T10:37:02;3.63;;;1.10;;
19973;SDS011;10148;47.694;9.442;2022-11-23T10:39:35;3.13;;;1.23;;
19973;SDS011;10148;47.694;9.442;2022-11-23T10:42:13;1.50;;;0.80;;
19973;SDS011;10148;47.694;9.442;2022-11-23T10:44:52;2.17;;;1.07;;
19973;SDS011;10148;47.694;9.442;2022-11-23T10:47:32;1.17;;;0.87;;
19973;SDS011;10148;47.694;9.442;2022-11-23T10:53:24;1.70;;;0.80;;
19973;SDS011;10148;47.694;9.442;2022-11-23T10:56:19;1.93;;;0.70;;
19973;SDS011;10148;47.694;9.442;2022-11-23T10:58:54;2.90;;;0.60;;
19973;SDS011;10148;47.694;9.442;2022-11-23T11:01:29;0.80;;;0.63;;
19973;SDS011;10148;47.694;9.442;2022-11-23T11:04:04;1.80;;;0.70;;
19973;SDS011;10148;47.694;9.442;2022-11-23T11:07:01;0.97;;;0.70;;
19973;SDS011;10148;47.694;9.442;2022-11-23T11:13:44;2.03;;;1.20;;
19973;SDS011;10148;47.694;9.442;2022-11-23T11:21:58;4.50;;;0.90;;
19973;SDS011;10148;47.694;9.442;2022-11-23T11:27:02;2.40;;;0.90;;
19973;SDS011;10148;47.694;9.442;2022-11-23T11:29:45;2.13;;;0.55;;
19973;SDS011;10148;47.694;9.442;2022-11-23T11:32:14;0.85;;;0.55;;
19973;SDS011;10148;47.694;9.442;2022-11-23T11:37:37;3.20;;;0.82;;
19973;SDS011;10148;47.694;9.442;2022-11-23T11:40:11;1.42;;;0.70;;
19973;SDS011;10148;47.694;9.442;2022-11-23T11:42:42;1.38;;;0.65;;
19973;SDS011;10148;47.694;9.442;2022-11-23T11:45:24;1.42;;;0.68;;
19973;SDS011;10148;47.694;9.442;2022-11-23T11:48:02;1.50;;;0.65;;
19973;SDS011;10148;47.694;9.442;2022-11-23T11:50:31;3.67;;;0.63;;
19973;SDS011;10148;47.694;9.442;2022-11-23T11:53:07;1.77;;;0.63;;
19973;SDS011;10148;47.694;9.442;2022-11-23T11:55:54;3.33;;;0.40;;
19973;SDS011;10148;47.694;9.442;2022-11-23T11:58:40;1.73;;;0.63;;
19973;SDS011;10148;47.694;9.442;2022-11-23T12:01:32;2.35;;;0.50;;
19973;SDS011;10148;47.694;9.442;2022-11-23T12:04:19;1.83;;;0.40;;
19973;SDS011;10148;47.694;9.442;2022-11-23T12:09:41;1.92;;;0.32;;
19973;SDS011;10148;47.694;9.442;2022-11-23T12:12:14;3.55;;;0.82;;
19973;SDS011;10148;47.694;9.442;2022-11-23T12:14:45;3.85;;;0.90;;
19973;SDS011;10148;47.694;9.442;2022-11-23T12:22:50;1.58;;;0.50;;
19973;SDS011;10148;47.694;9.442;2022-11-23T12:25:41;1.55;;;0.40;;
19973;SDS011;10148;47.694;9.442;2022-11-23T12:28:27;3.17;;;0.50;;
19973;SDS011;10148;47.694;9.442;2022-11-23T12:37:45;1.38;;;0.55;;
19973;SDS011;10148;47.694;9.442;2022-11-23T12:45:58;0.47;;;0.40;;
19973;SDS011;10148;47.694;9.442;2022-11-23T12:51:03;1.65;;;0.70;;
19973;SDS011;10148;47.694;9.442;2022-11-23T12:54:07;0.60;;;0.28;;
19973;SDS011;10148;47.694;9.442;2022-11-23T12:59:39;2.20;;;0.70;;
19973;SDS011;10148;47.694;9.442;2022-11-23T13:08:28;0.30;;;0.30;;
19973;SDS011;10148;47.694;9.442;2022-11-23T13:17:09;1.08;;;0.50;;
19973;SDS011;10148;47.694;9.442;2022-11-23T13:22:39;1.17;;;0.60;;
19973;SDS011;10148;47.694;9.442;2022-11-23T13:30:29;1.08;;;0.30;;
19973;SDS011;10148;47.694;9.442;2022-11-23T13:40:41;1.25;;;0.52;;
19973;SDS011;10148;47.694;9.442;2022-11-23T13:43:18;1.33;;;0.25;;
19973;SDS011;10148;47.694;9.442;2022-11-23T13:48:50;3.47;;;0.85;;
19973;SDS011;10148;47.694;9.442;2022-11-23T13:51:27;1.60;;;0.40;;
19973;SDS011;10148;47.694;9.442;2022-11-23T13:54:01;1.05;;;0.25;;
19973;SDS011;10148;47.694;9.442;2022-11-23T13:56:39;4.03;;;0.45;;
19973;SDS011;10148;47.694;9.442;2022-11-23T14:04:32;1.13;;;0.45;;
19973;SDS011;10148;47.694;9.442;2022-11-23T14:07:03;0.90;;;0.38;;
19973;SDS011;10148;47.694;9.442;2022-11-23T14:12:31;0.98;;;0.52;;
19973;SDS011;10148;47.694;9.442;2022-11-23T14:15:20;0.47;;;0.30;;
19973;SDS011;10148;47.694;9.442;2022-11-23T14:20:48;0.32;;;0.30;;
19973;SDS011;10148;47.694;9.442;2022-11-23T14:23:30;1.27;;;0.50;;
19973;SDS011;10148;47.694;9.442;2022-11-23T14:26:13;0.82;;;0.30;;
19973;SDS011;10148;47.694;9.442;2022-11-23T14:29:15;1.77;;;0.43;;
19973;SDS011;10148;47.694;9.442;2022-11-23T14:43:40;0.60;;;0.30;;
19973;SDS011;10148;47.694;9.442;2022-11-23T14:46:12;1.98;;;0.30;;
19973;SDS011;10148;47.694;9.442;2022-11-23T14:48:45;1.00;;;0.40;;
19973;SDS011;10148;47.694;9.442;2022-11-23T14:51:14;0.80;;;0.47;;
19973;SDS011;10148;47.694;9.442;2022-11-23T14:53:43;1.15;;;0.40;;
19973;SDS011;10148;47.694;9.442;2022-11-23T14:59:04;0.43;;;0.20;;
19973;SDS011;10148;47.694;9.442;2022-11-23T15:01:32;1.42;;;0.50;;
19973;SDS011;10148;47.694;9.442;2022-11-23T15:04:05;1.38;;;0.50;;
19973;SDS011;10148;47.694;9.442;2022-11-23T15:06:32;1.20;;;0.40;;
19973;SDS011;10148;47.694;9.442;2022-11-23T15:09:04;1.10;;;0.35;;
19973;SDS011;10148;47.694;9.442;2022-11-23T15:12:04;0.88;;;0.45;;
19973;SDS011;10148;47.694;9.442;2022-11-23T15:14:31;0.63;;;0.28;;
19973;SDS011;10148;47.694;9.442;2022-11-23T15:17:10;1.98;;;0.40;;
19973;SDS011;10148;47.694;9.442;2022-11-23T15:19:37;0.60;;;0.45;;
19973;SDS011;10148;47.694;9.442;2022-11-23T15:22:03;2.67;;;0.50;;
19973;SDS011;10148;47.694;9.442;2022-11-23T15:24:29;0.60;;;0.30;;
19973;SDS011;10148;47.694;9.442;2022-11-23T15:26:56;0.70;;;0.40;;
19973;SDS011;10148;47.694;9.442;2022-11-23T15:29:29;2.95;;;0.70;;
19973;SDS011;10148;47.694;9.442;2022-11-23T15:31:56;1.60;;;0.45;;
19973;SDS011;10148;47.694;9.442;2022-11-23T15:34:22;1.45;;;0.52;;
19973;SDS011;10148;47.694;9.442;2022-11-23T15:36:49;3.20;;;0.50;;
19973;SDS011;10148;47.694;9.442;2022-11-23T15:39:19;1.15;;;0.55;;
19973;SDS011;10148;47.694;9.442;2022-11-23T15:41:48;2.78;;;0.80;;
19973;SDS011;10148;47.694;9.442;2022-11-23T15:44:16;0.73;;;0.50;;
19973;SDS011;10148;47.694;9.442;2022-11-23T15:46:54;1.27;;;0.50;;
19973;SDS011;10148;47.694;9.442;2022-11-23T15:49:23;2.67;;;0.60;;
19973;SDS011;10148;47.694;9.442;2022-11-23T15:51:49;1.53;;;0.67;;
19973;SDS011;10148;47.694;9.442;2022-11-23T15:54:20;1.43;;;0.60;;
19973;SDS011;10148;47.694;9.442;2022-11-23T15:56:49;1.17;;;0.70;;
19973;SDS011;10148;47.694;9.442;2022-11-23T16:02:09;1.13;;;0.50;;
19973;SDS011;10148;47.694;9.442;2022-11-23T16:05:12;2.10;;;0.83;;
19973;SDS011;10148;47.694;9.442;2022-11-23T16:07:55;2.10;;;0.70;;
19973;SDS011;10148;47.694;9.442;2022-11-23T16:12:52;0.93;;;0.50;;
19973;SDS011;10148;47.694;9.442;2022-11-23T16:18:23;1.17;;;0.70;;
19973;SDS011;10148;47.694;9.442;2022-11-23T16:20:56;1.37;;;0.50;;
19973;SDS011;10148;47.694;9.442;2022-11-23T16:23:35;3.03;;;0.87;;
19973;SDS011;10148;47.694;9.442;2022-11-23T16:26:14;1.60;;;0.83;;
19973;SDS011;10148;47.694;9.442;2022-11-23T16:28:50;2.67;;;1.00;;
19973;SDS011;10148;47.694;9.442;2022-11-23T16:33:53;1.00;;;0.80;;
19973;SDS011;10148;47.694;9.442;2022-11-23T16:36:20;2.13;;;0.70;;
19973;SDS011;10148;47.694;9.442;2022-11-23T16:38:45;0.80;;;0.67;;
19973;SDS011;10148;47.694;9.442;2022-11-23T16:41:11;0.97;;;0.67;;
19973;SDS011;10148;47.694;9.442;2022-11-23T16:43:37;1.70;;;1.23;;
19973;SDS011;10148;47.694;9.442;2022-11-23T16:46:02;1.97;;;1.60;;
19973;SDS011;10148;47.694;9.442;2022-11-23T16:48:35;2.53;;;1.27;;
19973;SDS011;10148;47.694;9.442;2022-11-23T16:51:05;2.33;;;1.90;;
19973;SDS011;10148;47.694;9.442;2022-11-23T16:53:34;3.50;;;2.73;;
19973;SDS011;10148;47.694;9.442;2022-11-23T16:56:00;5.18;;;2.45;;
19973;SDS011;10148;47.694;9.442;2022-11-23T16:58:31;0.73;;;0.63;;
19973;SDS011;10148;47.694;9.442;2022-11-23T17:01:02;3.13;;;1.03;;
19973;SDS011;10148;47.694;9.442;2022-11-23T17:03:28;1.77;;;0.83;;
19973;SDS011;10148;47.694;9.442;2022-11-23T17:05:54;1.30;;;1.20;;
19973;SDS011;10148;47.694;9.442;2022-11-23T17:08:20;2.50;;;1.30;;
19973;SDS011;10148;47.694;9.442;2022-11-23T17:10:46;1.37;;;0.73;;
19973;SDS011;10148;47.694;9.442;2022-11-23T17:13:31;2.23;;;0.80;;
19973;SDS011;10148;47.694;9.442;2022-11-23T17:15:57;1.47;;;1.00;;
19973;SDS011;10148;47.694;9.442;2022-11-23T17:18:22;2.07;;;1.13;;
19973;SDS011;10148;47.694;9.442;2022-11-23T17:20:48;1.80;;;1.13;;
19973;SDS011;10148;47.694;9.442;2022-11-23T17:23:14;4.80;;;2.23;;
19973;SDS011;10148;47.694;9.442;2022-11-23T17:25:39;1.13;;;1.03;;
19973;SDS011;10148;47.694;9.442;2022-11-23T17:28:09;2.20;;;1.37;;
19973;SDS011;10148;47.694;9.442;2022-11-23T17:30:39;2.57;;;1.43;;
19973;SDS011;10148;47.694;9.442;2022-11-23T17:33:04;0.93;;;0.63;;
19973;SDS011;10148;47.694;9.442;2022-11-23T17:35:33;2.20;;;1.20;;